createdAt,value
2022-08-09T00:00:11.937Z,95132.81
2022-08-09T00:02:42.885Z,95189.09
2022-08-09T00:06:18.347Z,95185.78
2022-08-09T00:08:10.239Z,95187.81
2022-08-09T00:10:39.428Z,95158.72
2022-08-09T00:13:16.830Z,95193.91
2022-08-09T00:15:59.363Z,95165.75
2022-08-09T00:18:35.617Z,95141.53
2022-08-09T00:21:08.856Z,95149.38
2022-08-09T00:23:57.340Z,95143.03
2022-08-09T00:26:29.988Z,95123.97
2022-08-09T00:29:01.716Z,95146.97
2022-08-09T00:31:57.141Z,95131.03
2022-08-09T00:34:19.077Z,95124.16
2022-08-09T00:36:48.797Z,95156.94
2022-08-09T00:40:09.156Z,95158.59
2022-08-09T00:44:09.936Z,95147.59
2022-08-09T00:44:53.740Z,95164.69
2022-08-09T00:47:24.725Z,95152.06
2022-08-09T00:49:54.931Z,95111.56
2022-08-09T00:52:30.225Z,95154.97
2022-08-09T00:55:00.920Z,95133.59
2022-08-09T00:57:34.240Z,95164.75
2022-08-09T01:00:21.438Z,95164.47
2022-08-09T01:03:14.572Z,95184.38
2022-08-09T01:05:59.055Z,95144.53
2022-08-09T01:08:49.642Z,95158.31
2022-08-09T01:11:29.912Z,95185.41
2022-08-09T01:14:28.023Z,95147.00
2022-08-09T01:17:05.176Z,95164.69
2022-08-09T01:20:03.456Z,95171.28
2022-08-09T01:23:04.077Z,95117.91
2022-08-09T01:26:43.060Z,95180.31
2022-08-09T01:29:17.443Z,95109.06
2022-08-09T01:32:31.529Z,95130.81
2022-08-09T01:34:35.484Z,95133.63
2022-08-09T01:37:08.153Z,95177.31
2022-08-09T01:39:37.073Z,95126.88
2022-08-09T01:42:11.244Z,95110.78
2022-08-09T01:44:41.493Z,95137.09
2022-08-09T01:47:11.715Z,95143.19
2022-08-09T01:49:39.886Z,95121.50
2022-08-09T01:52:18.859Z,95163.00
2022-08-09T01:54:54.575Z,95159.53
2022-08-09T01:57:45.895Z,95164.81
2022-08-09T02:00:34.520Z,95106.69
2022-08-09T02:03:03.227Z,95166.97
2022-08-09T02:05:37.804Z,95139.16
2022-08-09T02:08:40.052Z,95142.47
2022-08-09T02:11:17.027Z,95094.72
2022-08-09T02:14:02.215Z,95093.41
2022-08-09T02:16:53.070Z,95124.38
2022-08-09T02:19:24.636Z,95131.13
2022-08-09T02:22:15.570Z,95181.41
2022-08-09T02:24:52.023Z,95124.41
2022-08-09T02:27:21.471Z,95168.25
2022-08-09T02:30:09.996Z,95143.06
2022-08-09T02:32:43.393Z,95146.50
2022-08-09T02:35:26.158Z,95147.84
2022-08-09T02:38:11.515Z,95151.16
2022-08-09T02:40:50.881Z,95164.38
2022-08-09T02:43:21.173Z,95185.66
2022-08-09T02:45:50.988Z,95146.47
2022-08-09T02:48:31.195Z,95154.19
2022-08-09T02:51:02.498Z,95109.22
2022-08-09T02:53:53.089Z,95181.88
2022-08-09T02:56:28.882Z,95121.25
2022-08-09T02:59:04.044Z,95179.91
2022-08-09T03:01:42.594Z,95156.53
2022-08-09T03:04:20.708Z,95166.06
2022-08-09T03:06:54.159Z,95160.66
2022-08-09T03:09:25.107Z,95148.94
2022-08-09T03:12:09.780Z,95127.84
2022-08-09T03:14:41.111Z,95130.13
2022-08-09T03:17:16.518Z,95124.88
2022-08-09T03:19:59.710Z,95168.59
2022-08-09T03:22:31.894Z,95178.94
2022-08-09T03:25:06.653Z,95174.16
2022-08-09T03:27:52.314Z,95113.50
2022-08-09T03:30:30.056Z,95144.00
2022-08-09T03:33:17.488Z,95139.56
2022-08-09T03:36:12.370Z,95140.41
2022-08-09T03:38:42.139Z,95139.75
2022-08-09T03:41:14.885Z,95195.09
2022-08-09T03:44:03.801Z,95164.59
2022-08-09T03:46:38.281Z,95164.75
2022-08-09T03:49:08.083Z,95144.13
2022-08-09T03:52:04.727Z,95188.81
2022-08-09T03:54:38.902Z,95162.09
2022-08-09T03:57:18.570Z,95166.53
2022-08-09T03:59:56.156Z,95148.22
2022-08-09T04:02:29.713Z,95151.81
2022-08-09T04:05:05.668Z,95174.88
2022-08-09T04:07:53.405Z,95158.06
2022-08-09T04:10:29.578Z,95178.53
2022-08-09T04:13:00.784Z,95168.94
2022-08-09T04:15:38.730Z,95170.91
2022-08-09T04:18:16.453Z,95196.31
2022-08-09T04:20:44.672Z,95195.75
2022-08-09T04:23:17.064Z,95179.56
2022-08-09T04:25:52.295Z,95208.09
2022-08-09T04:28:33.916Z,95228.38
2022-08-09T04:31:08.606Z,95180.19
2022-08-09T04:33:52.497Z,95173.47
2022-08-09T04:36:26.764Z,95210.66
2022-08-09T04:38:56.032Z,95210.13
2022-08-09T04:41:24.397Z,95212.13
2022-08-09T04:44:06.915Z,95180.13
2022-08-09T04:46:59.260Z,95209.97
2022-08-09T04:49:40.173Z,95180.41
2022-08-09T04:52:18.495Z,95242.25
2022-08-09T04:54:52.154Z,95214.53
2022-08-09T04:57:21.418Z,95214.03
2022-08-09T04:59:52.515Z,95209.41
2022-08-09T05:02:19.819Z,95195.84
2022-08-09T05:04:47.453Z,95203.47
2022-08-09T05:07:19.412Z,95233.44
2022-08-09T05:09:50.031Z,95198.47
2022-08-09T05:12:19.170Z,95218.94
2022-08-09T05:14:49.562Z,95244.38
2022-08-09T05:18:38.169Z,95191.56
2022-08-09T05:20:05.250Z,95203.81
2022-08-09T05:22:35.820Z,95195.28
2022-08-09T05:25:22.953Z,95179.47
2022-08-09T05:27:52.805Z,95216.75
2022-08-09T05:30:22.532Z,95227.38
2022-08-09T05:32:50.770Z,95205.63
2022-08-09T05:35:21.933Z,95214.88
2022-08-09T05:37:50.109Z,95200.69
2022-08-09T05:40:18.181Z,95209.59
2022-08-09T05:42:46.081Z,95204.03
2022-08-09T05:45:14.464Z,95247.22
2022-08-09T05:47:53.013Z,95237.13
2022-08-09T05:50:44.074Z,95219.66
2022-08-09T05:53:31.702Z,95206.63
2022-08-09T05:56:16.587Z,95201.00
2022-08-09T05:58:44.265Z,95258.66
2022-08-09T06:01:11.545Z,95248.75
2022-08-09T06:03:54.556Z,95206.84
2022-08-09T06:06:25.964Z,95201.25
2022-08-09T06:08:53.263Z,95237.63
2022-08-09T06:11:20.255Z,95232.81
2022-08-09T06:14:09.236Z,95222.22
2022-08-09T06:16:36.779Z,95256.03
2022-08-09T06:19:03.951Z,95195.59
2022-08-09T06:21:32.999Z,95221.00
2022-08-09T06:24:02.359Z,95217.53
2022-08-09T06:26:30.034Z,95218.13
2022-08-09T06:29:00.148Z,95219.94
2022-08-09T06:31:31.041Z,95226.72
2022-08-09T06:33:58.822Z,95230.09
2022-08-09T06:36:27.153Z,95228.34
2022-08-09T06:38:57.670Z,95219.81
2022-08-09T06:41:56.744Z,95212.25
2022-08-09T06:44:18.025Z,95212.31
2022-08-09T06:46:48.251Z,95219.56
2022-08-09T06:49:29.105Z,95235.13
2022-08-09T06:52:04.502Z,95216.50
2022-08-09T06:54:34.985Z,95221.50
2022-08-09T06:57:01.916Z,95231.88
2022-08-09T07:00:51.081Z,95235.66
2022-08-09T07:02:16.765Z,95204.97
2022-08-09T07:04:43.775Z,95236.97
2022-08-09T07:07:12.215Z,95205.03
2022-08-09T07:10:11.500Z,95218.63
2022-08-09T07:12:46.142Z,95212.25
2022-08-09T07:16:34.990Z,95229.69
2022-08-09T07:18:15.277Z,95246.88
2022-08-09T07:20:43.498Z,95265.25
2022-08-09T07:23:18.540Z,95219.69
2022-08-09T07:25:52.232Z,95249.88
2022-08-09T07:28:26.237Z,95239.00
2022-08-09T07:30:56.030Z,95229.13
2022-08-09T07:33:23.435Z,95235.84
2022-08-09T07:35:53.897Z,95225.28
2022-08-09T07:38:23.350Z,95242.50
2022-08-09T07:41:08.331Z,95256.44
2022-08-09T07:43:49.574Z,95244.59
2022-08-09T07:46:19.145Z,95222.94
2022-08-09T07:48:52.764Z,95246.28
2022-08-09T07:52:04.544Z,95225.69
2022-08-09T07:54:14.219Z,95220.75
2022-08-09T07:56:44.962Z,95217.06
2022-08-09T07:59:25.538Z,95215.09
2022-08-09T08:02:02.943Z,95250.16
2022-08-09T08:04:31.545Z,95274.78
2022-08-09T08:07:27.013Z,95256.28
2022-08-09T08:09:53.511Z,95242.50
2022-08-09T08:12:28.258Z,95229.03
2022-08-09T08:14:57.274Z,95257.75
2022-08-09T08:17:53.115Z,95222.88
2022-08-09T08:20:28.917Z,95276.84
2022-08-09T08:23:03.452Z,95280.13
2022-08-09T08:25:44.442Z,95261.81
2022-08-09T08:28:15.225Z,95266.59
2022-08-09T08:30:44.298Z,95264.38
2022-08-09T08:33:22.881Z,95250.94
2022-08-09T08:35:58.331Z,95228.16
2022-08-09T08:38:28.040Z,95253.50
2022-08-09T08:40:57.641Z,95291.66
2022-08-09T08:43:27.272Z,95229.91
2022-08-09T08:46:31.913Z,95268.44
2022-08-09T08:48:55.213Z,95300.34
2022-08-09T08:51:23.553Z,95242.25
2022-08-09T08:54:03.428Z,95265.19
2022-08-09T08:56:37.809Z,95242.50
2022-08-09T08:59:19.687Z,95267.13
2022-08-09T09:01:52.737Z,95243.34
2022-08-09T09:04:27.262Z,95281.31
2022-08-09T09:06:58.400Z,95263.91
2022-08-09T09:09:58.403Z,95254.66
2022-08-09T09:12:20.784Z,95255.56
2022-08-09T09:14:52.155Z,95287.09
2022-08-09T09:17:20.988Z,95296.16
2022-08-09T09:19:48.199Z,95310.28
2022-08-09T09:22:28.575Z,95228.97
2022-08-09T09:26:01.808Z,95303.47
2022-08-09T09:28:06.150Z,95268.63
2022-08-09T09:30:39.969Z,95282.50
2022-08-09T09:33:16.115Z,95290.88
2022-08-09T09:36:19.902Z,95265.13
2022-08-09T09:38:58.258Z,95251.28
2022-08-09T09:41:33.374Z,95287.59
2022-08-09T09:44:27.529Z,95243.75
2022-08-09T09:47:07.963Z,95230.94
2022-08-09T09:49:56.109Z,95245.22
2022-08-09T09:52:35.765Z,95242.94
2022-08-09T09:55:24.347Z,95240.41
2022-08-09T09:58:18.840Z,95265.00
2022-08-09T10:00:59.426Z,95275.09
2022-08-09T10:03:57.801Z,95262.03
2022-08-09T10:06:32.563Z,95243.94
2022-08-09T10:09:11.888Z,95251.25
2022-08-09T10:12:12.102Z,95246.56
2022-08-09T10:14:48.095Z,95256.72
2022-08-09T10:17:51.307Z,95254.03
2022-08-09T10:20:27.426Z,95285.34
2022-08-09T10:23:11.117Z,95264.88
2022-08-09T10:26:06.623Z,95277.00
2022-08-09T10:28:31.263Z,95278.47
2022-08-09T10:34:10.615Z,95265.34
2022-08-09T10:36:33.841Z,95281.44
2022-08-09T10:39:02.969Z,95252.34
2022-08-09T10:41:33.167Z,95248.63
2022-08-09T10:44:04.163Z,95262.03
2022-08-09T10:47:01.112Z,95285.25
2022-08-09T10:49:51.774Z,95254.44
2022-08-09T10:53:10.432Z,95283.16
2022-08-09T10:55:55.707Z,95236.78
2022-08-09T10:58:34.902Z,95246.72
2022-08-09T11:03:06.932Z,95241.44
2022-08-09T11:04:19.672Z,95254.06
2022-08-09T11:07:01.159Z,95280.47
2022-08-09T11:09:47.688Z,95275.84
2022-08-09T11:12:30.505Z,95194.03
2022-08-09T11:15:19.465Z,95267.72
2022-08-09T11:18:02.907Z,95225.56
2022-08-09T11:20:49.770Z,95252.81
2022-08-09T11:23:17.171Z,95249.31
2022-08-09T11:25:51.261Z,95215.31
2022-08-09T11:28:54.394Z,95206.28
2022-08-09T11:31:49.167Z,95257.94
2022-08-09T11:34:31.158Z,95231.97
2022-08-09T11:36:59.876Z,95235.56
2022-08-09T11:39:37.991Z,95239.38
2022-08-09T11:42:47.185Z,95238.78
2022-08-09T11:45:44.708Z,95279.41
2022-08-09T11:48:26.021Z,95265.47
2022-08-09T11:52:48.509Z,95275.06
2022-08-09T11:54:01.453Z,95244.50
2022-08-09T11:56:41.468Z,95251.47
2022-08-09T11:59:12.313Z,95228.78
2022-08-09T12:02:18.409Z,95223.44
2022-08-09T12:04:38.076Z,95215.09
2022-08-09T12:07:08.457Z,95225.47
2022-08-09T12:09:36.306Z,95246.91
2022-08-09T12:12:28.536Z,95242.03
2022-08-09T12:15:07.449Z,95197.53
2022-08-09T12:17:44.515Z,95219.81
2022-08-09T12:20:25.154Z,95199.63
2022-08-09T12:23:01.471Z,95264.56
2022-08-09T12:25:37.240Z,95202.34
2022-08-09T12:29:12.228Z,95266.66
2022-08-09T12:30:57.870Z,95256.00
2022-08-09T12:33:35.359Z,95232.94
2022-08-09T12:36:15.442Z,95191.56
2022-08-09T12:38:58.716Z,95224.69
2022-08-09T12:41:38.333Z,95220.03
2022-08-09T12:44:09.672Z,95206.28
2022-08-09T12:46:48.999Z,95188.44
2022-08-09T12:49:17.577Z,95197.38
2022-08-09T12:52:03.616Z,95208.44
2022-08-09T12:55:03.022Z,95218.59
2022-08-09T12:57:49.708Z,95211.56
2022-08-09T13:00:25.533Z,95207.00
2022-08-09T13:02:59.883Z,95201.88
2022-08-09T13:05:52.395Z,95193.22
2022-08-09T13:08:40.862Z,95198.25
2022-08-09T13:11:13.192Z,95175.06
2022-08-09T13:14:42.349Z,95227.09
2022-08-09T13:16:56.796Z,95184.00
2022-08-09T13:20:07.662Z,95215.59
2022-08-09T13:23:01.218Z,95192.47
2022-08-09T13:25:23.316Z,95235.16
2022-08-09T13:27:56.054Z,95191.25
2022-08-09T13:30:48.804Z,95212.50
2022-08-09T13:33:22.385Z,95211.44
2022-08-09T13:36:38.980Z,95199.06
2022-08-09T13:39:34.355Z,95219.13
2022-08-09T13:41:57.133Z,95214.13
2022-08-09T13:44:28.295Z,95183.25
2022-08-09T13:47:29.744Z,95215.84
2022-08-09T13:49:56.276Z,95183.13
2022-08-09T13:52:25.945Z,95178.78
2022-08-09T13:55:00.935Z,95160.47
2022-08-09T13:57:39.212Z,95196.94
2022-08-09T14:00:16.145Z,95189.84
2022-08-09T14:03:03.277Z,95181.06
2022-08-09T14:06:00.376Z,95192.97
2022-08-09T14:08:27.079Z,95150.03
2022-08-09T14:10:56.518Z,95179.84
2022-08-09T14:14:16.011Z,95189.31
2022-08-09T14:16:15.377Z,95197.75
2022-08-09T14:18:49.553Z,95178.47
2022-08-09T14:21:21.050Z,95173.88
2022-08-09T14:23:55.263Z,95187.97
2022-08-09T14:26:31.783Z,95165.75
2022-08-09T14:29:25.784Z,95195.25
2022-08-09T14:31:56.040Z,95149.84
2022-08-09T14:34:31.373Z,95164.28
2022-08-09T14:37:06.914Z,95176.69
2022-08-09T14:39:46.517Z,95148.25
2022-08-09T14:42:28.885Z,95159.03
2022-08-09T14:45:14.731Z,95160.69
2022-08-09T14:47:57.423Z,95176.84
2022-08-09T14:50:31.625Z,95172.53
2022-08-09T14:53:11.737Z,95145.06
2022-08-09T14:55:47.913Z,95173.00
2022-08-09T14:58:17.464Z,95177.56
2022-08-09T15:00:48.104Z,95157.78
2022-08-09T15:03:20.216Z,95166.06
2022-08-09T15:05:50.203Z,95151.41
2022-08-09T15:08:23.975Z,95194.38
2022-08-09T15:11:00.392Z,95177.09
2022-08-09T15:13:47.839Z,95160.69
2022-08-09T15:16:16.140Z,95153.75
2022-08-09T15:18:43.197Z,95162.22
2022-08-09T15:21:58.256Z,95159.88
2022-08-09T15:24:09.197Z,95147.00
2022-08-09T15:26:57.826Z,95165.69
2022-08-09T15:30:58.999Z,95154.47
2022-08-09T15:32:28.400Z,95157.72
2022-08-09T15:35:01.022Z,95140.69
2022-08-09T15:37:37.960Z,95155.25
2022-08-09T15:40:25.166Z,95151.97
2022-08-09T15:42:58.758Z,95172.97
2022-08-09T15:45:29.169Z,95127.19
2022-08-09T15:48:05.398Z,95156.22
2022-08-09T15:50:39.340Z,95127.69
2022-08-09T15:53:18.716Z,95150.53
2022-08-09T15:58:46.457Z,95119.63
2022-08-09T16:01:13.796Z,95142.69
2022-08-09T16:03:41.752Z,95114.03
2022-08-09T16:06:16.150Z,95154.00
2022-08-09T16:09:01.283Z,95101.59
2022-08-09T16:11:32.935Z,95137.38
2022-08-09T16:14:07.988Z,95163.44
2022-08-09T16:16:48.104Z,95135.34
2022-08-09T16:19:15.304Z,95152.66
2022-08-09T16:21:56.349Z,95149.94
2022-08-09T16:24:33.310Z,95152.66
2022-08-09T16:27:02.111Z,95148.91
2022-08-09T16:29:37.752Z,95139.13
2022-08-09T16:32:49.493Z,95124.75
2022-08-09T16:35:19.400Z,95114.47
2022-08-09T16:38:03.983Z,95133.69
2022-08-09T16:40:40.711Z,95106.00
2022-08-09T16:43:08.889Z,95136.63
2022-08-09T16:45:37.181Z,95101.72
2022-08-09T16:48:40.999Z,95159.09
2022-08-09T16:51:08.009Z,95128.78
2022-08-09T16:53:36.582Z,95122.22
2022-08-09T16:56:10.149Z,95148.47
2022-08-09T16:58:39.735Z,95134.16
2022-08-09T17:01:09.605Z,95110.00
2022-08-09T17:03:37.640Z,95139.25
2022-08-09T17:06:28.453Z,95160.03
2022-08-09T17:09:01.733Z,95111.75
2022-08-09T17:11:40.812Z,95113.66
2022-08-09T17:14:26.193Z,95145.97
2022-08-09T17:17:23.360Z,95164.31
2022-08-09T17:20:32.573Z,95143.13
2022-08-09T17:22:52.083Z,95159.31
2022-08-09T17:25:30.567Z,95159.88
2022-08-09T17:27:58.437Z,95123.97
2022-08-09T17:30:30.865Z,95153.16
2022-08-09T17:33:05.296Z,95119.50
2022-08-09T17:35:48.700Z,95160.13
2022-08-09T17:38:30.731Z,95154.16
2022-08-09T17:41:02.905Z,95127.00
2022-08-09T17:43:34.707Z,95173.56
2022-08-09T17:46:09.005Z,95118.19
2022-08-09T17:48:40.317Z,95147.84
2022-08-09T17:51:19.207Z,95157.31
2022-08-09T17:53:53.030Z,95174.81
2022-08-09T17:56:29.147Z,95173.97
2022-08-09T17:59:09.499Z,95163.34
2022-08-09T18:02:07.841Z,95186.66
2022-08-09T18:04:30.369Z,95176.16
2022-08-09T18:06:57.640Z,95187.19
2022-08-09T18:09:40.055Z,95175.69
2022-08-09T18:12:15.072Z,95133.97
2022-08-09T18:14:53.795Z,95168.53
2022-08-09T18:17:27.549Z,95161.44
2022-08-09T18:20:55.956Z,95143.75
2022-08-09T18:23:07.247Z,95130.84
2022-08-09T18:25:52.453Z,95124.84
2022-08-09T18:30:39.648Z,95189.59
2022-08-09T18:31:32.065Z,95179.34
2022-08-09T18:34:19.573Z,95193.78
2022-08-09T18:36:50.760Z,95169.34
2022-08-09T18:39:22.483Z,95150.63
2022-08-09T18:41:52.843Z,95190.81
2022-08-09T18:44:25.502Z,95142.56
2022-08-09T18:47:04.863Z,95166.44
2022-08-09T18:49:46.746Z,95193.91
2022-08-09T18:52:18.827Z,95143.56
2022-08-09T18:54:52.446Z,95180.22
2022-08-09T18:57:22.117Z,95196.50
2022-08-09T19:00:03.028Z,95216.03
2022-08-09T19:02:32.491Z,95184.38
2022-08-09T19:05:20.629Z,95214.25
2022-08-09T19:08:04.319Z,95214.38
2022-08-09T19:10:39.487Z,95220.59
2022-08-09T19:13:20.954Z,95214.38
2022-08-09T19:16:01.506Z,95235.31
2022-08-09T19:18:36.317Z,95204.44
2022-08-09T19:21:09.488Z,95201.50
2022-08-09T19:24:32.369Z,95235.94
2022-08-09T19:26:32.120Z,95230.16
2022-08-09T19:29:15.676Z,95229.53
2022-08-09T19:31:51.395Z,95192.03
2022-08-09T19:34:21.799Z,95234.44
2022-08-09T19:36:54.304Z,95207.31
2022-08-09T19:39:43.864Z,95198.31
2022-08-09T19:42:20.739Z,95240.84
2022-08-09T19:44:55.263Z,95231.31
2022-08-09T19:47:23.941Z,95194.91
2022-08-09T19:50:08.331Z,95206.44
2022-08-09T19:52:51.433Z,95248.97
2022-08-09T19:55:30.607Z,95221.91
2022-08-09T19:58:16.536Z,95238.34
2022-08-09T20:00:45.845Z,95251.25
2022-08-09T20:04:10.524Z,95235.44
2022-08-09T20:06:22.690Z,95261.31
2022-08-09T20:08:56.555Z,95234.94
2022-08-09T20:11:25.920Z,95262.88
2022-08-09T20:14:07.036Z,95241.63
2022-08-09T20:16:50.320Z,95251.50
2022-08-09T20:19:49.544Z,95239.34
2022-08-09T20:22:18.932Z,95219.91
2022-08-09T20:24:51.887Z,95224.28
2022-08-09T20:27:21.857Z,95254.81
2022-08-09T20:29:49.078Z,95261.59
2022-08-09T20:32:30.861Z,95253.88
2022-08-09T20:35:01.715Z,95253.06
2022-08-09T20:37:37.289Z,95249.38
2022-08-09T20:40:19.133Z,95246.75
2022-08-09T20:43:00.183Z,95282.63
2022-08-09T20:45:57.102Z,95237.91
2022-08-09T20:48:29.068Z,95277.69
2022-08-09T20:50:58.537Z,95266.84
2022-08-09T20:53:36.329Z,95249.97
2022-08-09T20:56:19.831Z,95235.00
2022-08-09T20:58:50.364Z,95225.97
2022-08-09T21:01:32.800Z,95237.84
2022-08-09T21:05:49.522Z,95227.31
2022-08-09T21:06:52.482Z,95268.94
2022-08-09T21:09:32.930Z,95249.25
2022-08-09T21:14:38.339Z,95256.59
2022-08-09T21:18:24.158Z,95253.50
2022-08-09T21:20:18.108Z,95243.06
2022-08-09T21:22:46.788Z,95266.81
2022-08-09T21:25:37.691Z,95244.00
2022-08-09T21:28:07.580Z,95237.00
2022-08-09T21:30:40.806Z,95246.03
2022-08-09T21:33:09.002Z,95235.56
2022-08-09T21:35:40.986Z,95255.69
2022-08-09T21:38:21.104Z,95189.78
2022-08-09T21:40:59.408Z,95252.53
2022-08-09T21:43:56.013Z,95226.63
2022-08-09T21:46:14.330Z,95248.78
2022-08-09T21:48:42.720Z,95255.09
2022-08-09T21:51:24.532Z,95213.13
2022-08-09T21:54:03.111Z,95266.84
2022-08-09T21:56:43.480Z,95242.53
2022-08-09T21:59:16.733Z,95254.97
2022-08-09T22:02:01.207Z,95273.44
2022-08-09T22:04:55.233Z,95224.47
2022-08-09T22:07:35.176Z,95229.94
2022-08-09T22:10:07.602Z,95247.78
2022-08-09T22:12:37.275Z,95258.28
2022-08-09T22:15:16.654Z,95275.97
2022-08-09T22:17:46.595Z,95256.88
2022-08-09T22:20:17.073Z,95264.63
2022-08-09T22:22:49.463Z,95230.34
2022-08-09T22:26:07.194Z,95268.53
2022-08-09T22:29:25.565Z,95277.38
2022-08-09T22:31:57.349Z,95224.66
2022-08-09T22:34:28.200Z,95239.44
2022-08-09T22:36:57.181Z,95228.88
2022-08-09T22:39:55.481Z,95268.13
2022-08-09T22:42:20.918Z,95277.75
2022-08-09T22:45:00.030Z,95290.13
2022-08-09T22:48:18.406Z,95258.91
2022-08-09T22:50:30.878Z,95250.53
2022-08-09T22:52:59.875Z,95252.28
2022-08-09T22:56:05.894Z,95279.88
2022-08-09T22:58:20.474Z,95227.41
2022-08-09T23:01:04.247Z,95231.19
2022-08-09T23:04:03.465Z,95252.03
2022-08-09T23:06:32.506Z,95224.44
2022-08-09T23:09:06.373Z,95269.84
2022-08-09T23:11:33.549Z,95258.06
2022-08-09T23:14:00.611Z,95258.34
2022-08-09T23:16:27.553Z,95272.16
2022-08-09T23:18:54.429Z,95261.81
2022-08-09T23:21:23.956Z,95257.16
2022-08-09T23:24:05.260Z,95243.81
2022-08-09T23:26:36.143Z,95231.28
2022-08-09T23:29:07.193Z,95229.75
2022-08-09T23:31:34.429Z,95252.31
2022-08-09T23:34:03.900Z,95247.81
2022-08-09T23:36:31.592Z,95236.56
2022-08-09T23:38:58.474Z,95229.81
2022-08-09T23:41:29.006Z,95238.88
2022-08-09T23:44:00.927Z,95243.81
2022-08-09T23:46:29.719Z,95236.41
2022-08-09T23:48:57.675Z,95240.44
2022-08-09T23:51:25.041Z,95233.66
2022-08-09T23:53:52.485Z,95250.13
2022-08-09T23:56:53.399Z,95238.97
2022-08-09T23:59:09.313Z,95229.34
